createdAt,value
2023-04-04T00:00:52.347Z,1.98
2023-04-04T00:03:21.058Z,1.50
2023-04-04T00:05:51.455Z,3.30
2023-04-04T00:08:19.930Z,1.73
2023-04-04T00:10:48.440Z,1.43
2023-04-04T00:13:17.604Z,1.60
2023-04-04T00:15:46.757Z,2.10
2023-04-04T00:18:15.086Z,1.23
2023-04-04T00:20:43.649Z,1.80
2023-04-04T00:23:12.157Z,1.40
2023-04-04T00:25:41.154Z,1.72
2023-04-04T00:28:09.424Z,2.47
2023-04-04T00:30:38.119Z,2.00
2023-04-04T00:33:07.072Z,2.23
2023-04-04T00:35:35.729Z,2.57
2023-04-04T00:38:05.000Z,1.65
2023-04-04T00:40:35.371Z,2.12
2023-04-04T00:43:03.894Z,2.40
2023-04-04T00:45:33.259Z,1.37
2023-04-04T00:48:03.313Z,1.83
2023-04-04T00:50:32.424Z,2.07
2023-04-04T00:53:01.787Z,1.77
2023-04-04T00:55:30.911Z,1.93
2023-04-04T00:58:00.171Z,1.63
2023-04-04T01:00:28.899Z,2.07
2023-04-04T01:02:58.037Z,1.50
2023-04-04T01:05:26.984Z,2.08
2023-04-04T01:07:56.392Z,1.62
2023-04-04T01:10:25.281Z,1.03
2023-04-04T01:12:53.784Z,0.93
2023-04-04T01:15:22.451Z,1.70
2023-04-04T01:17:51.913Z,1.63
2023-04-04T01:20:22.018Z,1.13
2023-04-04T01:22:56.067Z,1.30
2023-04-04T01:25:31.230Z,2.50
2023-04-04T01:28:01.445Z,1.83
2023-04-04T01:30:31.832Z,2.00
2023-04-04T01:33:01.872Z,1.40
2023-04-04T01:35:42.746Z,1.50
2023-04-04T01:38:16.185Z,1.27
2023-04-04T01:40:52.314Z,1.87
2023-04-04T01:43:21.466Z,1.93
2023-04-04T01:45:50.753Z,1.53
2023-04-04T01:48:19.978Z,1.77
2023-04-04T01:50:49.892Z,1.83
2023-04-04T01:53:18.404Z,1.40
2023-04-04T01:55:47.226Z,1.62
2023-04-04T01:58:17.438Z,1.67
2023-04-04T02:00:46.296Z,1.33
2023-04-04T02:03:15.192Z,1.33
2023-04-04T02:05:43.758Z,1.07
2023-04-04T02:08:13.291Z,1.53
2023-04-04T02:10:43.437Z,1.85
2023-04-04T02:13:12.227Z,1.90
2023-04-04T02:15:42.644Z,1.37
2023-04-04T02:18:11.317Z,2.03
2023-04-04T02:20:40.001Z,2.10
2023-04-04T02:23:09.199Z,2.07
2023-04-04T02:25:38.078Z,2.17
2023-04-04T02:28:06.775Z,1.33
2023-04-04T02:30:35.604Z,2.00
2023-04-04T02:33:04.812Z,2.13
2023-04-04T02:35:33.455Z,1.30
2023-04-04T02:38:02.088Z,2.03
2023-04-04T02:40:32.579Z,2.22
2023-04-04T02:43:01.408Z,1.70
2023-04-04T02:45:30.104Z,1.77
2023-04-04T02:48:00.650Z,1.77
2023-04-04T02:50:30.637Z,1.67
2023-04-04T02:53:02.728Z,1.87
2023-04-04T02:55:33.329Z,2.12
2023-04-04T02:58:02.276Z,2.27
2023-04-04T03:00:31.226Z,2.40
2023-04-04T03:02:59.835Z,2.03
2023-04-04T03:05:31.800Z,2.47
2023-04-04T03:08:00.209Z,2.40
2023-04-04T03:10:32.460Z,1.90
2023-04-04T03:13:00.920Z,2.03
2023-04-04T03:15:30.669Z,2.17
2023-04-04T03:18:00.006Z,2.72
2023-04-04T03:20:29.674Z,1.87
2023-04-04T03:22:58.606Z,6.87
2023-04-04T03:25:27.479Z,2.27
2023-04-04T03:27:56.202Z,2.53
2023-04-04T03:30:27.113Z,3.22
2023-04-04T03:32:56.058Z,2.07
2023-04-04T03:35:24.701Z,3.03
2023-04-04T03:37:54.664Z,4.83
2023-04-04T03:40:23.027Z,1.80
2023-04-04T03:42:52.164Z,2.93
2023-04-04T03:45:20.872Z,2.37
2023-04-04T03:47:49.479Z,3.30
2023-04-04T03:50:18.394Z,2.53
2023-04-04T03:52:48.576Z,1.67
2023-04-04T03:55:17.453Z,3.80
2023-04-04T03:57:47.076Z,3.53
2023-04-04T04:00:16.380Z,2.92
2023-04-04T04:02:45.755Z,2.70
2023-04-04T04:05:14.525Z,2.40
2023-04-04T04:07:46.580Z,2.37
2023-04-04T04:10:14.938Z,2.30
2023-04-04T04:12:43.429Z,2.80
2023-04-04T04:15:12.110Z,2.93
2023-04-04T04:17:42.269Z,2.73
2023-04-04T04:20:12.327Z,3.65
2023-04-04T04:22:48.405Z,2.62
2023-04-04T04:25:17.725Z,1.77
2023-04-04T04:27:48.035Z,2.37
2023-04-04T04:30:16.677Z,2.93
2023-04-04T04:32:46.115Z,1.93
2023-04-04T04:35:15.602Z,2.35
2023-04-04T04:37:44.343Z,2.80
2023-04-04T04:40:14.548Z,2.50
2023-04-04T04:42:46.292Z,2.95
2023-04-04T04:45:16.544Z,2.77
2023-04-04T04:47:46.793Z,3.80
2023-04-04T04:50:16.904Z,2.40
2023-04-04T04:52:46.834Z,2.97
2023-04-04T04:55:15.683Z,1.80
2023-04-04T04:57:48.125Z,2.33
2023-04-04T05:00:24.047Z,2.13
2023-04-04T05:02:54.292Z,2.00
2023-04-04T05:05:24.534Z,2.63
2023-04-04T05:07:54.877Z,3.23
2023-04-04T05:10:23.192Z,1.97
2023-04-04T05:12:51.914Z,2.43
2023-04-04T05:15:21.942Z,2.80
2023-04-04T05:17:52.776Z,2.17
2023-04-04T05:22:51.577Z,2.95
2023-04-04T05:25:22.435Z,2.87
2023-04-04T05:27:51.323Z,2.22
2023-04-04T05:30:20.584Z,1.90
2023-04-04T05:32:52.648Z,1.33
2023-04-04T05:35:23.028Z,2.23
2023-04-04T05:37:51.713Z,1.90
2023-04-04T05:40:20.445Z,2.90
2023-04-04T05:42:55.002Z,2.50
2023-04-04T05:45:24.886Z,2.33
2023-04-04T05:47:53.582Z,2.13
2023-04-04T05:50:23.037Z,2.20
2023-04-04T05:52:53.798Z,1.77
2023-04-04T05:55:22.459Z,2.10
2023-04-04T05:57:52.784Z,3.20
2023-04-04T06:00:22.964Z,1.70
2023-04-04T06:02:53.990Z,1.73
2023-04-04T06:05:22.934Z,2.00
2023-04-04T06:07:51.764Z,1.72
2023-04-04T06:10:19.975Z,2.83
2023-04-04T06:12:48.637Z,1.63
2023-04-04T06:15:18.410Z,2.03
2023-04-04T06:17:47.035Z,2.00
2023-04-04T06:20:15.759Z,1.70
2023-04-04T06:22:44.312Z,1.67
2023-04-04T06:25:14.541Z,2.77
2023-04-04T06:27:43.705Z,2.20
2023-04-04T06:30:14.428Z,2.03
2023-04-04T06:32:43.441Z,1.95
2023-04-04T06:35:13.356Z,1.50
2023-04-04T06:37:46.250Z,1.57
2023-04-04T06:40:17.120Z,1.47
2023-04-04T06:42:50.199Z,1.37
2023-04-04T06:45:18.979Z,1.37
2023-04-04T06:47:49.164Z,2.00
2023-04-04T06:50:17.767Z,2.20
2023-04-04T06:52:47.777Z,1.70
2023-04-04T06:55:16.877Z,2.40
2023-04-04T06:57:45.736Z,1.70
2023-04-04T07:00:14.843Z,1.53
2023-04-04T07:02:43.811Z,1.35
2023-04-04T07:05:14.120Z,1.83
2023-04-04T07:07:42.740Z,1.60
2023-04-04T07:10:11.517Z,2.10
2023-04-04T07:12:40.308Z,3.92
2023-04-04T07:15:09.181Z,1.83
2023-04-04T07:17:39.058Z,1.87
2023-04-04T07:20:08.347Z,1.50
2023-04-04T07:22:40.449Z,1.30
2023-04-04T07:25:09.739Z,1.70
2023-04-04T07:27:38.295Z,0.60
2023-04-04T07:30:08.078Z,0.90
2023-04-04T07:32:38.131Z,0.80
2023-04-04T07:35:08.061Z,0.80
2023-04-04T07:37:40.537Z,0.97
2023-04-04T07:40:09.623Z,1.03
2023-04-04T07:42:40.148Z,1.77
2023-04-04T07:45:08.771Z,1.80
2023-04-04T07:47:38.069Z,1.72
2023-04-04T07:50:06.964Z,1.30
2023-04-04T07:52:35.643Z,0.97
2023-04-04T07:55:06.989Z,0.72
2023-04-04T07:57:39.379Z,1.40
2023-04-04T08:00:09.723Z,0.70
2023-04-04T08:02:39.974Z,0.90
2023-04-04T08:05:08.674Z,0.60
2023-04-04T08:07:37.173Z,0.70
2023-04-04T08:10:06.148Z,1.60
2023-04-04T08:12:34.655Z,1.10
2023-04-04T08:15:03.616Z,1.50
2023-04-04T08:17:32.268Z,0.93
2023-04-04T08:20:00.818Z,0.50
2023-04-04T08:22:29.289Z,0.77
2023-04-04T08:24:58.249Z,1.10
2023-04-04T08:27:27.424Z,2.15
2023-04-04T08:29:56.295Z,0.53
2023-04-04T08:32:24.962Z,1.40
2023-04-04T08:34:54.349Z,1.00
2023-04-04T08:37:22.708Z,1.03
2023-04-04T08:39:51.200Z,0.77
2023-04-04T08:42:20.639Z,0.60
2023-04-04T08:44:50.869Z,0.67
2023-04-04T08:47:21.358Z,0.60
2023-04-04T08:49:50.025Z,0.60
2023-04-04T08:52:19.542Z,0.70
2023-04-04T08:54:48.583Z,0.70
2023-04-04T08:57:17.115Z,0.57
2023-04-04T08:59:46.073Z,1.05
2023-04-04T09:02:19.316Z,2.13
2023-04-04T09:04:58.236Z,1.15
2023-04-04T09:07:19.150Z,1.17
2023-04-04T09:09:48.136Z,1.43
2023-04-04T09:12:17.109Z,1.80
2023-04-04T09:14:46.914Z,1.10
2023-04-04T09:17:15.180Z,1.67
2023-04-04T09:19:43.684Z,1.30
2023-04-04T09:22:12.243Z,0.45
2023-04-04T09:24:41.704Z,0.97
2023-04-04T09:27:11.780Z,1.03
2023-04-04T09:29:40.915Z,1.23
2023-04-04T09:32:17.443Z,1.67
2023-04-04T09:34:46.086Z,1.50
2023-04-04T09:37:16.137Z,0.50
2023-04-04T09:39:45.115Z,0.87
2023-04-04T09:42:13.721Z,2.10
2023-04-04T09:44:43.245Z,1.40
2023-04-04T09:49:56.134Z,1.17
2023-04-04T09:52:24.572Z,1.07
2023-04-04T09:57:23.408Z,0.60
2023-04-04T09:59:51.944Z,0.70
2023-04-04T10:02:20.409Z,0.75
2023-04-04T10:04:51.085Z,0.57
2023-04-04T10:07:19.071Z,0.87
2023-04-04T10:09:50.374Z,1.30
2023-04-04T10:12:20.489Z,0.63
2023-04-04T10:14:48.814Z,3.60
2023-04-04T10:17:17.219Z,2.27
2023-04-04T10:19:46.672Z,4.80
2023-04-04T10:22:15.460Z,1.70
2023-04-04T10:24:43.976Z,0.70
2023-04-04T10:27:12.763Z,1.20
2023-04-04T10:29:41.348Z,0.73
2023-04-04T10:32:10.254Z,0.97
2023-04-04T10:34:52.398Z,1.10
2023-04-04T10:37:22.398Z,0.80
2023-04-04T10:40:07.489Z,0.57
2023-04-04T10:42:47.251Z,0.90
2023-04-04T10:45:21.080Z,0.60
2023-04-04T10:47:46.507Z,0.60
2023-04-04T10:50:15.528Z,0.80
2023-04-04T10:52:45.349Z,0.90
2023-04-04T10:55:14.986Z,0.40
2023-04-04T10:57:52.335Z,0.37
2023-04-04T11:00:22.790Z,0.50
2023-04-04T11:02:57.050Z,0.60
2023-04-04T11:05:27.269Z,1.83
2023-04-04T11:10:36.600Z,0.83
2023-04-04T11:13:14.096Z,1.90
2023-04-04T11:15:47.654Z,0.90
2023-04-04T11:18:30.653Z,0.53
2023-04-04T11:20:47.791Z,0.77
2023-04-04T11:23:19.505Z,1.03
2023-04-04T11:25:51.736Z,0.90
2023-04-04T11:28:28.037Z,1.00
2023-04-04T11:31:13.677Z,1.75
2023-04-04T11:34:00.298Z,1.53
2023-04-04T11:36:40.103Z,1.50
2023-04-04T11:39:15.541Z,1.20
2023-04-04T11:41:52.006Z,0.70
2023-04-04T11:44:23.763Z,0.87
2023-04-04T11:46:57.276Z,0.70
2023-04-04T11:49:27.553Z,0.87
2023-04-04T11:51:57.421Z,2.02
2023-04-04T11:54:27.307Z,1.20
2023-04-04T11:56:55.813Z,1.47
2023-04-04T11:59:24.851Z,0.70
2023-04-04T12:01:55.048Z,1.20
2023-04-04T12:04:23.423Z,0.70
2023-04-04T12:06:53.088Z,1.97
2023-04-04T12:09:21.680Z,1.00
2023-04-04T12:11:51.544Z,1.92
2023-04-04T12:14:21.829Z,5.10
2023-04-04T12:16:54.353Z,1.60
2023-04-04T12:19:27.549Z,3.93
2023-04-04T12:21:57.334Z,1.33
2023-04-04T12:24:26.583Z,2.80
2023-04-04T12:26:55.970Z,3.47
2023-04-04T12:29:26.258Z,2.67
2023-04-04T12:31:54.882Z,2.20
2023-04-04T12:34:23.755Z,0.80
2023-04-04T12:36:53.125Z,1.60
2023-04-04T12:39:22.537Z,1.77
2023-04-04T12:41:54.932Z,1.03
2023-04-04T12:44:33.300Z,1.20
2023-04-04T12:47:04.347Z,1.53
2023-04-04T12:49:34.501Z,1.27
2023-04-04T12:52:05.419Z,1.47
2023-04-04T12:54:34.997Z,1.67
2023-04-04T12:57:08.078Z,1.33
2023-04-04T12:59:37.094Z,1.17
2023-04-04T13:02:09.606Z,2.20
2023-04-04T13:04:39.679Z,2.10
2023-04-04T13:07:22.182Z,1.43
2023-04-04T13:09:55.253Z,3.03
2023-04-04T13:12:23.813Z,1.23
2023-04-04T13:14:58.837Z,1.93
2023-04-04T13:17:28.934Z,2.03
2023-04-04T13:19:57.682Z,1.02
2023-04-04T13:22:28.145Z,1.52
2023-04-04T13:24:56.620Z,1.70
2023-04-04T13:27:26.757Z,1.30
2023-04-04T13:29:55.472Z,1.33
2023-04-04T13:32:23.874Z,1.50
2023-04-04T13:34:52.720Z,1.00
2023-04-04T13:37:21.091Z,1.97
2023-04-04T13:39:50.386Z,1.30
2023-04-04T13:42:18.927Z,1.20
2023-04-04T13:44:47.491Z,2.33
2023-04-04T13:47:16.059Z,1.53
2023-04-04T13:49:44.594Z,0.87
2023-04-04T13:52:13.429Z,3.67
2023-04-04T13:54:42.205Z,1.10
2023-04-04T13:57:11.301Z,1.02
2023-04-04T13:59:39.826Z,1.17
2023-04-04T14:02:09.195Z,2.00
2023-04-04T14:04:38.220Z,1.35
2023-04-04T14:07:07.055Z,1.00
2023-04-04T14:09:35.529Z,0.97
2023-04-04T14:12:04.966Z,2.75
2023-04-04T14:14:35.563Z,0.80
2023-04-04T14:17:03.532Z,0.80
2023-04-04T14:19:32.479Z,0.90
2023-04-04T14:22:02.048Z,0.75
2023-04-04T14:24:30.617Z,1.73
2023-04-04T14:26:59.156Z,2.73
2023-04-04T14:29:28.097Z,2.67
2023-04-04T14:31:57.010Z,1.12
2023-04-04T14:34:27.397Z,1.73
2023-04-04T14:36:56.206Z,1.60
2023-04-04T14:39:25.057Z,0.95
2023-04-04T14:41:53.904Z,1.12
2023-04-04T14:44:22.383Z,1.33
2023-04-04T14:46:52.809Z,0.90
2023-04-04T14:49:21.073Z,1.07
2023-04-04T14:51:49.578Z,1.10
2023-04-04T14:54:18.066Z,0.77
2023-04-04T14:56:46.964Z,1.20
2023-04-04T14:59:15.424Z,1.33
2023-04-04T15:01:44.150Z,0.90
2023-04-04T15:04:12.795Z,1.00
2023-04-04T15:06:41.357Z,1.03
2023-04-04T15:09:09.712Z,1.10
2023-04-04T15:11:38.273Z,2.13
2023-04-04T15:14:06.803Z,0.67
2023-04-04T15:16:35.931Z,1.00
2023-04-04T15:19:04.818Z,0.93
2023-04-04T15:21:33.621Z,0.72
2023-04-04T15:24:02.416Z,0.98
2023-04-04T15:26:31.104Z,2.10
2023-04-04T15:28:59.616Z,1.07
2023-04-04T15:31:28.520Z,1.00
2023-04-04T15:33:58.726Z,1.13
2023-04-04T15:36:28.819Z,2.53
2023-04-04T15:38:57.412Z,1.43
2023-04-04T15:41:25.938Z,0.60
2023-04-04T15:43:54.569Z,0.90
2023-04-04T15:46:23.539Z,1.07
2023-04-04T15:48:52.421Z,1.67
2023-04-04T15:51:21.298Z,1.03
2023-04-04T15:53:52.405Z,1.70
2023-04-04T15:58:48.402Z,1.12
2023-04-04T16:01:16.868Z,0.73
2023-04-04T16:03:45.601Z,0.73
2023-04-04T16:06:14.290Z,0.90
2023-04-04T16:08:43.388Z,0.60
2023-04-04T16:11:12.053Z,1.37
2023-04-04T16:13:40.900Z,0.95
2023-04-04T16:16:09.732Z,0.85
2023-04-04T16:18:38.395Z,1.17
2023-04-04T16:21:07.212Z,1.30
2023-04-04T16:23:36.084Z,0.85
2023-04-04T16:26:04.470Z,1.23
2023-04-04T16:28:33.001Z,1.63
2023-04-04T16:31:01.545Z,1.90
2023-04-04T16:33:30.451Z,1.92
2023-04-04T16:35:59.434Z,1.35
2023-04-04T16:38:28.018Z,0.83
2023-04-04T16:40:58.355Z,4.47
2023-04-04T16:43:26.922Z,2.13
2023-04-04T16:45:55.434Z,0.50
2023-04-04T16:48:24.961Z,0.70
2023-04-04T16:50:55.587Z,1.25
2023-04-04T16:53:23.940Z,1.47
2023-04-04T16:55:52.530Z,0.70
2023-04-04T16:58:20.849Z,0.83
2023-04-04T17:00:49.446Z,1.17
2023-04-04T17:03:17.774Z,1.10
2023-04-04T17:05:46.282Z,1.27
2023-04-04T17:08:15.855Z,0.73
2023-04-04T17:10:44.341Z,1.00
2023-04-04T17:13:19.514Z,1.10
2023-04-04T17:15:48.227Z,1.40
2023-04-04T17:18:16.743Z,2.07
2023-04-04T17:20:46.900Z,1.50
2023-04-04T17:23:15.376Z,1.27
2023-04-04T17:25:43.967Z,1.07
2023-04-04T17:28:12.471Z,0.93
2023-04-04T17:30:42.088Z,1.13
2023-04-04T17:33:10.718Z,1.33
2023-04-04T17:35:39.959Z,2.30
2023-04-04T17:38:09.241Z,2.80
2023-04-04T17:40:39.536Z,2.77
2023-04-04T17:43:08.956Z,5.70
2023-04-04T17:45:37.432Z,5.73
2023-04-04T17:51:21.242Z,2.77
2023-04-04T17:53:51.514Z,2.57
2023-04-04T17:56:20.144Z,1.90
2023-04-04T17:58:48.733Z,2.90
2023-04-04T18:01:17.880Z,1.98
2023-04-04T18:03:47.641Z,2.43
2023-04-04T18:06:16.442Z,1.37
2023-04-04T18:08:45.274Z,2.47
2023-04-04T18:11:16.474Z,2.10
2023-04-04T18:13:46.136Z,4.70
2023-04-04T18:16:17.468Z,2.42
2023-04-04T18:18:47.848Z,2.90
2023-04-04T18:21:16.396Z,2.20
2023-04-04T18:23:47.871Z,6.73
2023-04-04T18:26:16.551Z,2.33
2023-04-04T18:28:45.230Z,3.33
2023-04-04T18:31:13.600Z,5.27
2023-04-04T18:33:42.200Z,5.67
2023-04-04T18:36:10.872Z,7.00
2023-04-04T18:38:39.435Z,5.70
2023-04-04T18:41:08.541Z,7.03
2023-04-04T18:43:37.103Z,5.13
2023-04-04T18:46:05.889Z,5.63
2023-04-04T18:48:34.949Z,4.45
2023-04-04T18:51:04.422Z,4.33
2023-04-04T18:53:32.997Z,6.37
2023-04-04T18:56:04.117Z,5.08
2023-04-04T18:58:32.814Z,4.92
2023-04-04T19:01:03.547Z,5.65
2023-04-04T19:03:33.493Z,6.07
2023-04-04T19:06:02.386Z,5.73
2023-04-04T19:08:31.436Z,6.47
2023-04-04T19:10:59.962Z,6.73
2023-04-04T19:13:28.515Z,5.30
2023-04-04T19:15:57.500Z,6.37
2023-04-04T19:18:26.155Z,6.10
2023-04-04T19:20:54.657Z,5.83
2023-04-04T19:23:22.941Z,6.60
2023-04-04T19:25:51.455Z,7.80
2023-04-04T19:28:20.075Z,7.53
2023-04-04T19:30:49.737Z,6.87
2023-04-04T19:33:19.937Z,6.90
2023-04-04T19:35:56.569Z,6.37
2023-04-04T19:38:27.968Z,6.47
2023-04-04T19:40:58.046Z,6.67
2023-04-04T19:43:27.290Z,6.73
2023-04-04T19:45:57.278Z,7.03
2023-04-04T19:48:44.971Z,7.67
2023-04-04T19:51:14.914Z,10.23
2023-04-04T19:53:45.003Z,6.17
2023-04-04T19:56:13.873Z,8.65
2023-04-04T19:58:42.461Z,8.77
2023-04-04T20:01:11.627Z,9.13
2023-04-04T20:03:40.451Z,8.03
2023-04-04T20:06:10.551Z,8.23
2023-04-04T20:08:47.627Z,6.80
2023-04-04T20:11:19.558Z,6.47
2023-04-04T20:13:49.763Z,7.42
2023-04-04T20:16:18.579Z,7.40
2023-04-04T20:18:47.192Z,7.07
2023-04-04T20:21:16.171Z,6.93
2023-04-04T20:23:45.935Z,5.13
2023-04-04T20:26:16.303Z,4.63
2023-04-04T20:28:45.981Z,4.03
2023-04-04T20:31:16.015Z,3.60
2023-04-04T20:33:44.621Z,4.27
2023-04-04T20:36:14.589Z,3.83
2023-04-04T20:38:43.013Z,4.00
2023-04-04T20:41:23.633Z,4.23
2023-04-04T20:43:56.448Z,3.83
2023-04-04T20:46:26.043Z,4.77
2023-04-04T20:48:56.707Z,5.80
2023-04-04T20:51:29.789Z,7.37
2023-04-04T20:53:59.840Z,7.20
2023-04-04T20:56:42.442Z,6.57
2023-04-04T20:59:31.068Z,6.53
2023-04-04T21:02:04.360Z,7.60
2023-04-04T21:04:34.715Z,5.22
2023-04-04T21:07:04.923Z,6.58
2023-04-04T21:09:33.516Z,6.73
2023-04-04T21:12:02.488Z,5.92
2023-04-04T21:14:32.549Z,6.73
2023-04-04T21:17:01.590Z,7.55
2023-04-04T21:19:30.598Z,6.70
2023-04-04T21:22:01.109Z,5.97
2023-04-04T21:24:30.871Z,5.23
2023-04-04T21:26:59.409Z,6.17
2023-04-04T21:29:29.511Z,6.20
2023-04-04T21:31:58.596Z,5.00
2023-04-04T21:34:27.864Z,6.77
2023-04-04T21:36:57.129Z,6.10
2023-04-04T21:39:26.592Z,6.27
2023-04-04T21:42:03.276Z,5.57
2023-04-04T21:44:32.854Z,6.77
2023-04-04T21:47:01.485Z,5.17
2023-04-04T21:49:29.997Z,5.70
2023-04-04T21:51:58.552Z,5.57
2023-04-04T21:54:28.042Z,6.53
2023-04-04T21:56:56.559Z,5.23
2023-04-04T21:59:25.356Z,5.87
2023-04-04T22:01:54.201Z,4.87
2023-04-04T22:04:23.129Z,5.30
2023-04-04T22:06:51.669Z,6.30
2023-04-04T22:09:21.542Z,6.20
2023-04-04T22:11:50.074Z,6.53
2023-04-04T22:14:18.408Z,7.03
2023-04-04T22:16:47.178Z,7.13
2023-04-04T22:19:15.513Z,7.17
2023-04-04T22:21:45.783Z,6.63
2023-04-04T22:24:15.427Z,8.10
2023-04-04T22:26:45.699Z,9.10
2023-04-04T22:29:14.377Z,8.13
2023-04-04T22:31:44.949Z,5.40
2023-04-04T22:34:15.228Z,5.60
2023-04-04T22:36:44.513Z,7.27
2023-04-04T22:39:14.452Z,8.43
2023-04-04T22:41:42.704Z,6.00
2023-04-04T22:44:11.007Z,7.60
2023-04-04T22:46:39.953Z,6.83
2023-04-04T22:49:10.413Z,8.10
2023-04-04T22:51:40.264Z,5.13
2023-04-04T22:54:09.460Z,6.30
2023-04-04T22:56:38.051Z,6.03
2023-04-04T22:59:06.700Z,6.83
2023-04-04T23:01:35.917Z,7.15
2023-04-04T23:04:05.617Z,5.62
2023-04-04T23:06:34.436Z,5.57
2023-04-04T23:09:03.314Z,8.18
2023-04-04T23:11:31.819Z,5.97
2023-04-04T23:14:00.511Z,6.50
2023-04-04T23:16:29.196Z,5.47
2023-04-04T23:18:58.028Z,7.22
2023-04-04T23:21:28.242Z,7.03
2023-04-04T23:23:57.431Z,5.13
2023-04-04T23:26:27.125Z,6.35
2023-04-04T23:28:56.998Z,4.92
2023-04-04T23:31:26.499Z,6.17
2023-04-04T23:33:55.438Z,6.33
2023-04-04T23:36:23.687Z,5.07
2023-04-04T23:38:53.148Z,5.85
2023-04-04T23:41:21.433Z,5.63
2023-04-04T23:43:50.319Z,5.90
2023-04-04T23:46:18.885Z,6.47
2023-04-04T23:48:47.765Z,6.70
2023-04-04T23:51:17.154Z,5.33
2023-04-04T23:53:46.059Z,4.67
2023-04-04T23:56:14.581Z,5.07
2023-04-04T23:58:43.396Z,4.87
